createdAt,value
2022-09-15T00:01:11.439Z,24.70
2022-09-15T00:03:38.829Z,24.70
2022-09-15T00:06:05.793Z,24.70
2022-09-15T00:08:32.520Z,24.70
2022-09-15T00:11:10.236Z,24.70
2022-09-15T00:13:37.700Z,24.80
2022-09-15T00:16:05.060Z,24.80
2022-09-15T00:18:32.348Z,24.80
2022-09-15T00:20:59.080Z,24.80
2022-09-15T00:23:25.907Z,24.80
2022-09-15T00:25:53.341Z,24.80
2022-09-15T00:28:21.053Z,24.90
2022-09-15T00:30:49.186Z,24.70
2022-09-15T00:33:16.487Z,25.00
2022-09-15T00:35:44.456Z,24.90
2022-09-15T00:38:12.158Z,25.00
2022-09-15T00:40:45.247Z,25.00
2022-09-15T00:43:12.341Z,25.10
2022-09-15T00:45:39.223Z,25.10
2022-09-15T00:48:08.212Z,24.80
2022-09-15T00:50:37.006Z,25.10
2022-09-15T00:53:05.938Z,25.10
2022-09-15T00:55:44.243Z,25.10
2022-09-15T00:58:32.600Z,25.20
2022-09-15T01:01:00.811Z,25.20
2022-09-15T01:03:30.459Z,25.30
2022-09-15T01:06:04.011Z,25.30
2022-09-15T01:08:41.169Z,25.30
2022-09-15T01:11:08.022Z,25.30
2022-09-15T01:13:35.394Z,25.30
2022-09-15T01:16:02.086Z,25.30
2022-09-15T01:18:31.840Z,25.30
2022-09-15T01:21:04.878Z,25.20
2022-09-15T01:23:50.138Z,25.20
2022-09-15T01:26:35.705Z,25.10
2022-09-15T01:29:21.882Z,25.10
2022-09-15T01:32:15.020Z,25.00
2022-09-15T01:34:44.863Z,24.90
2022-09-15T01:37:15.855Z,24.90
2022-09-15T01:39:45.033Z,24.80
2022-09-15T01:42:14.745Z,24.80
2022-09-15T01:44:50.751Z,24.80
2022-09-15T01:47:19.111Z,24.70
2022-09-15T01:49:52.368Z,24.60
2022-09-15T01:52:20.056Z,24.60
2022-09-15T01:54:49.200Z,24.60
2022-09-15T01:57:17.343Z,24.50
2022-09-15T01:59:44.428Z,24.50
2022-09-15T02:02:14.691Z,24.50
2022-09-15T02:04:46.408Z,24.50
2022-09-15T02:07:31.985Z,24.60
2022-09-15T02:10:05.365Z,24.50
2022-09-15T02:15:30.336Z,24.50
2022-09-15T02:17:58.067Z,24.50
2022-09-15T02:20:29.881Z,24.30
2022-09-15T02:22:57.280Z,24.60
2022-09-15T02:25:44.672Z,24.60
2022-09-15T02:28:12.949Z,24.60
2022-09-15T02:30:41.958Z,24.60
2022-09-15T02:33:12.826Z,24.60
2022-09-15T02:35:40.827Z,24.70
2022-09-15T02:38:09.067Z,24.60
2022-09-15T02:40:36.675Z,24.60
2022-09-15T02:43:05.392Z,24.60
2022-09-15T02:45:32.277Z,24.70
2022-09-15T02:47:59.282Z,24.60
2022-09-15T02:50:26.694Z,24.60
2022-09-15T02:52:54.060Z,24.60
2022-09-15T02:55:21.186Z,24.70
2022-09-15T02:57:47.967Z,24.60
2022-09-15T03:00:17.405Z,24.60
2022-09-15T03:02:45.655Z,24.60
2022-09-15T03:05:13.543Z,24.60
2022-09-15T03:07:40.675Z,24.60
2022-09-15T03:10:08.128Z,24.60
2022-09-15T03:12:41.753Z,24.60
2022-09-15T03:15:09.265Z,24.60
2022-09-15T03:17:36.683Z,24.50
2022-09-15T03:20:04.714Z,24.50
2022-09-15T03:22:31.940Z,24.50
2022-09-15T03:24:58.750Z,24.40
2022-09-15T03:27:25.625Z,24.40
2022-09-15T03:29:52.469Z,24.40
2022-09-15T03:32:19.683Z,24.40
2022-09-15T03:34:46.515Z,24.40
2022-09-15T03:37:13.399Z,24.40
2022-09-15T03:39:40.156Z,24.30
2022-09-15T03:42:07.077Z,24.40
2022-09-15T03:44:33.901Z,24.30
2022-09-15T03:47:00.603Z,24.30
2022-09-15T03:49:27.327Z,24.30
2022-09-15T03:51:54.101Z,24.30
2022-09-15T03:54:20.968Z,24.30
2022-09-15T03:56:49.028Z,24.30
2022-09-15T03:59:16.215Z,24.30
2022-09-15T04:01:43.492Z,24.30
2022-09-15T04:04:10.619Z,24.30
2022-09-15T04:06:37.387Z,24.00
2022-09-15T04:09:04.521Z,24.30
2022-09-15T04:11:31.364Z,24.20
2022-09-15T04:13:58.410Z,24.30
2022-09-15T04:16:25.712Z,24.20
2022-09-15T04:18:53.006Z,24.20
2022-09-15T04:21:21.013Z,24.20
2022-09-15T04:23:47.951Z,24.20
2022-09-15T04:26:20.500Z,24.20
2022-09-15T04:28:47.365Z,24.10
2022-09-15T04:31:15.183Z,24.10
2022-09-15T04:33:42.882Z,24.10
2022-09-15T04:36:17.341Z,24.10
2022-09-15T04:38:44.941Z,24.10
2022-09-15T04:41:12.436Z,24.00
2022-09-15T04:43:39.275Z,24.10
2022-09-15T04:46:06.503Z,24.10
2022-09-15T04:48:33.705Z,24.10
2022-09-15T04:51:01.322Z,24.00
2022-09-15T04:53:28.191Z,24.00
2022-09-15T04:56:01.607Z,24.00
2022-09-15T04:58:28.353Z,24.00
2022-09-15T05:00:55.119Z,24.00
2022-09-15T05:03:21.929Z,24.00
2022-09-15T05:05:48.670Z,24.00
2022-09-15T05:08:15.824Z,24.00
2022-09-15T05:10:42.910Z,24.00
2022-09-15T05:13:09.703Z,24.00
2022-09-15T05:15:36.418Z,24.00
2022-09-15T05:18:03.592Z,24.00
2022-09-15T05:20:30.319Z,24.00
2022-09-15T05:22:57.112Z,24.10
2022-09-15T05:25:23.965Z,24.00
2022-09-15T05:27:50.703Z,24.00
2022-09-15T05:30:36.881Z,24.10
2022-09-15T05:33:05.156Z,24.10
2022-09-15T05:35:31.856Z,24.10
2022-09-15T05:37:58.778Z,24.10
2022-09-15T05:40:25.528Z,24.10
2022-09-15T05:42:52.844Z,24.10
2022-09-15T05:45:19.562Z,24.10
2022-09-15T05:47:46.317Z,24.10
2022-09-15T05:50:13.662Z,24.10
2022-09-15T05:52:40.476Z,24.10
2022-09-15T05:55:07.450Z,24.10
2022-09-15T05:57:34.240Z,24.20
2022-09-15T06:00:01.005Z,24.10
2022-09-15T06:02:27.899Z,24.20
2022-09-15T06:04:54.775Z,24.20
2022-09-15T06:07:21.553Z,24.20
2022-09-15T06:09:48.302Z,24.20
2022-09-15T06:12:15.056Z,24.30
2022-09-15T06:14:43.346Z,24.20
2022-09-15T06:17:10.177Z,24.30
2022-09-15T06:19:36.914Z,24.30
2022-09-15T06:22:04.190Z,24.30
2022-09-15T06:24:30.915Z,24.40
2022-09-15T06:26:57.887Z,24.30
2022-09-15T06:29:25.198Z,24.40
2022-09-15T06:31:52.259Z,24.40
2022-09-15T06:34:19.140Z,24.40
2022-09-15T06:36:45.899Z,24.40
2022-09-15T06:39:14.104Z,24.50
2022-09-15T06:42:01.228Z,24.60
2022-09-15T06:44:28.493Z,24.60
2022-09-15T06:46:55.201Z,24.60
2022-09-15T06:49:22.000Z,24.70
2022-09-15T06:51:48.913Z,24.70
2022-09-15T06:54:16.207Z,24.70
2022-09-15T06:56:43.052Z,24.80
2022-09-15T06:59:13.238Z,24.80
2022-09-15T07:01:39.973Z,24.80
2022-09-15T07:04:09.690Z,24.80
2022-09-15T07:06:37.724Z,24.80
2022-09-15T07:09:05.552Z,24.80
2022-09-15T07:11:33.340Z,24.90
2022-09-15T07:14:00.280Z,25.00
2022-09-15T07:16:27.209Z,25.00
2022-09-15T07:18:57.746Z,25.00
2022-09-15T07:21:24.753Z,25.10
2022-09-15T07:23:51.694Z,25.10
2022-09-15T07:26:23.138Z,25.10
2022-09-15T07:28:51.314Z,25.20
2022-09-15T07:31:19.492Z,25.20
2022-09-15T07:33:46.386Z,25.20
2022-09-15T07:36:13.287Z,25.30
2022-09-15T07:38:41.595Z,25.30
2022-09-15T07:41:12.633Z,25.30
2022-09-15T07:43:39.496Z,25.30
2022-09-15T07:46:06.747Z,25.40
2022-09-15T07:48:33.703Z,25.40
2022-09-15T07:51:00.510Z,25.40
2022-09-15T07:53:28.033Z,25.40
2022-09-15T07:55:55.428Z,25.40
2022-09-15T07:58:22.710Z,25.50
2022-09-15T08:00:49.566Z,25.40
2022-09-15T08:03:16.598Z,25.40
2022-09-15T08:05:45.742Z,25.50
2022-09-15T08:08:12.957Z,25.50
2022-09-15T08:10:41.205Z,25.50
2022-09-15T08:13:08.234Z,25.50
2022-09-15T08:15:35.662Z,25.60
2022-09-15T08:18:02.569Z,25.70
2022-09-15T08:20:29.385Z,25.70
2022-09-15T08:22:56.257Z,25.80
2022-09-15T08:25:22.972Z,25.80
2022-09-15T08:27:49.763Z,25.90
2022-09-15T08:30:16.479Z,25.90
2022-09-15T08:32:43.276Z,25.90
2022-09-15T08:35:09.985Z,26.00
2022-09-15T08:37:36.837Z,25.90
2022-09-15T08:40:03.752Z,25.90
2022-09-15T08:42:33.217Z,25.80
2022-09-15T08:45:02.419Z,25.80
2022-09-15T08:47:36.068Z,25.80
2022-09-15T08:50:05.587Z,25.70
2022-09-15T08:52:38.947Z,25.60
2022-09-15T08:55:14.721Z,25.60
2022-09-15T08:57:41.644Z,25.60
2022-09-15T09:00:13.913Z,25.50
2022-09-15T09:02:48.476Z,25.50
2022-09-15T09:05:21.892Z,25.50
2022-09-15T09:07:52.914Z,25.40
2022-09-15T09:10:33.812Z,25.40
2022-09-15T09:13:03.605Z,25.40
2022-09-15T09:15:33.542Z,25.40
2022-09-15T09:18:33.123Z,25.30
2022-09-15T09:21:13.212Z,25.30
2022-09-15T09:23:47.184Z,25.30
2022-09-15T09:26:14.720Z,25.30
2022-09-15T09:28:54.660Z,25.30
2022-09-15T09:31:22.932Z,25.30
2022-09-15T09:34:06.360Z,25.20
2022-09-15T09:36:33.533Z,25.20
2022-09-15T09:39:01.604Z,25.10
2022-09-15T09:41:35.797Z,25.10
2022-09-15T09:44:03.924Z,25.00
2022-09-15T09:46:31.581Z,25.00
2022-09-15T09:48:58.530Z,24.90
2022-09-15T09:51:34.356Z,24.90
2022-09-15T09:54:20.757Z,24.80
2022-09-15T09:56:51.584Z,24.80
2022-09-15T09:59:37.138Z,24.80
2022-09-15T10:02:17.789Z,24.80
2022-09-15T10:04:46.000Z,24.80
2022-09-15T10:07:14.185Z,24.80
2022-09-15T10:09:49.184Z,24.80
2022-09-15T10:12:21.148Z,24.80
2022-09-15T10:14:52.596Z,24.80
2022-09-15T10:17:24.259Z,24.80
2022-09-15T10:19:55.499Z,24.80
2022-09-15T10:22:22.230Z,24.60
2022-09-15T10:24:50.172Z,24.70
2022-09-15T10:27:20.188Z,24.50
2022-09-15T10:29:47.341Z,24.60
2022-09-15T10:32:25.211Z,24.60
2022-09-15T10:35:21.711Z,24.50
2022-09-15T10:37:48.537Z,24.40
2022-09-15T10:40:15.302Z,24.40
2022-09-15T10:42:50.306Z,24.20
2022-09-15T10:45:18.740Z,24.10
2022-09-15T10:48:03.849Z,24.00
2022-09-15T10:50:32.388Z,24.20
2022-09-15T10:53:17.978Z,23.80
2022-09-15T10:56:03.048Z,23.60
2022-09-15T10:58:36.597Z,23.50
2022-09-15T11:01:16.794Z,23.40
2022-09-15T11:03:43.630Z,23.20
2022-09-15T11:06:20.566Z,23.10
2022-09-15T11:09:05.803Z,23.10
2022-09-15T11:11:38.884Z,22.90
2022-09-15T11:14:08.686Z,22.90
2022-09-15T11:16:50.721Z,22.90
2022-09-15T11:19:24.851Z,22.80
2022-09-15T11:21:58.116Z,22.80
2022-09-15T11:24:40.272Z,22.70
2022-09-15T11:27:07.119Z,22.70
2022-09-15T11:29:33.794Z,22.60
2022-09-15T11:32:04.646Z,22.50
2022-09-15T11:34:54.838Z,22.50
2022-09-15T11:37:24.186Z,22.40
2022-09-15T11:39:57.085Z,22.50
2022-09-15T11:42:26.491Z,22.50
2022-09-15T11:44:54.995Z,22.50
2022-09-15T11:47:21.788Z,22.60
2022-09-15T11:50:03.538Z,22.50
2022-09-15T11:52:39.607Z,22.50
2022-09-15T11:55:18.444Z,22.70
2022-09-15T11:57:50.510Z,22.80
2022-09-15T12:00:17.495Z,22.90
2022-09-15T12:02:44.351Z,22.90
2022-09-15T12:05:13.545Z,23.00
2022-09-15T12:07:46.252Z,23.00
2022-09-15T12:10:23.089Z,23.10
2022-09-15T12:12:51.566Z,23.10
2022-09-15T12:15:19.221Z,22.80
2022-09-15T12:17:46.051Z,23.20
2022-09-15T12:20:17.802Z,23.20
2022-09-15T12:22:57.592Z,23.30
2022-09-15T12:25:26.897Z,23.30
2022-09-15T12:28:26.682Z,23.20
2022-09-15T12:31:19.884Z,23.10
2022-09-15T12:33:53.619Z,22.90
2022-09-15T12:36:34.625Z,22.80
2022-09-15T12:39:02.491Z,22.80
2022-09-15T12:41:29.224Z,22.80
2022-09-15T12:43:58.306Z,22.80
2022-09-15T12:46:25.687Z,22.80
2022-09-15T12:48:54.589Z,22.80
2022-09-15T12:51:22.951Z,22.80
2022-09-15T12:53:50.980Z,23.00
2022-09-15T12:56:23.619Z,23.00
2022-09-15T12:58:51.021Z,23.10
2022-09-15T13:01:24.542Z,23.10
2022-09-15T13:03:53.767Z,23.20
2022-09-15T13:06:25.000Z,23.30
2022-09-15T13:08:54.882Z,23.30
2022-09-15T13:11:25.496Z,23.30
2022-09-15T13:14:06.687Z,23.40
2022-09-15T13:16:52.899Z,23.40
2022-09-15T13:19:25.782Z,23.50
2022-09-15T13:21:56.884Z,23.40
2022-09-15T13:24:38.067Z,23.40
2022-09-15T13:27:06.400Z,23.40
2022-09-15T13:29:36.202Z,23.40
2022-09-15T13:32:13.633Z,23.40
2022-09-15T13:35:09.227Z,23.30
2022-09-15T13:38:17.115Z,23.30
2022-09-15T13:40:45.183Z,23.30
2022-09-15T13:43:26.301Z,23.30
2022-09-15T13:45:59.263Z,23.30
2022-09-15T13:48:38.017Z,23.40
2022-09-15T13:51:10.360Z,23.40
2022-09-15T13:53:43.291Z,23.40
2022-09-15T13:56:17.772Z,23.40
2022-09-15T13:59:04.271Z,23.40
2022-09-15T14:01:34.416Z,23.40
2022-09-15T14:04:21.529Z,23.30
2022-09-15T14:06:57.060Z,23.30
2022-09-15T14:09:30.076Z,23.30
2022-09-15T14:11:59.384Z,23.20
2022-09-15T14:14:40.407Z,23.10
2022-09-15T14:17:28.696Z,23.10
2022-09-15T14:19:56.627Z,23.10
2022-09-15T14:22:26.055Z,23.10
2022-09-15T14:24:53.826Z,23.00
2022-09-15T14:27:32.146Z,23.00
2022-09-15T14:30:02.280Z,23.00
2022-09-15T14:32:31.502Z,22.90
2022-09-15T14:34:59.317Z,22.90
2022-09-15T14:37:31.990Z,22.90
2022-09-15T14:40:00.295Z,22.90
2022-09-15T14:42:33.707Z,22.90
2022-09-15T14:48:01.324Z,22.80
2022-09-15T14:50:32.544Z,22.80
2022-09-15T14:53:00.204Z,22.70
2022-09-15T14:55:38.946Z,22.80
2022-09-15T14:58:07.477Z,23.00
2022-09-15T15:00:37.562Z,22.80
2022-09-15T15:03:14.811Z,22.80
2022-09-15T15:05:46.945Z,22.80
2022-09-15T15:08:21.274Z,22.80
2022-09-15T15:10:48.223Z,22.80
2022-09-15T15:13:16.530Z,22.80
2022-09-15T15:15:46.576Z,22.80
2022-09-15T15:18:37.676Z,22.80
2022-09-15T15:21:05.130Z,22.80
2022-09-15T15:23:32.776Z,22.80
2022-09-15T15:26:18.496Z,22.80
2022-09-15T15:28:45.287Z,22.80
2022-09-15T15:31:12.082Z,22.80
2022-09-15T15:33:45.507Z,22.70
2022-09-15T15:36:12.383Z,22.70
2022-09-15T15:38:44.918Z,22.60
2022-09-15T15:41:19.636Z,22.70
2022-09-15T15:44:08.979Z,22.70
2022-09-15T15:46:46.037Z,22.70
2022-09-15T15:49:13.280Z,22.70
2022-09-15T15:51:40.361Z,22.70
2022-09-15T15:54:07.154Z,22.70
2022-09-15T15:56:37.768Z,22.70
2022-09-15T15:59:05.777Z,22.60
2022-09-15T16:01:33.435Z,22.60
2022-09-15T16:04:00.419Z,22.50
2022-09-15T16:06:27.289Z,22.50
2022-09-15T16:08:58.155Z,22.40
2022-09-15T16:11:24.993Z,22.30
2022-09-15T16:13:52.147Z,22.00
2022-09-15T16:16:20.621Z,21.70
2022-09-15T16:18:47.688Z,21.40
2022-09-15T16:21:18.268Z,21.30
2022-09-15T16:23:45.666Z,21.20
2022-09-15T16:26:14.392Z,21.20
2022-09-15T16:28:41.216Z,21.20
2022-09-15T16:31:09.899Z,21.20
2022-09-15T16:33:38.243Z,21.20
2022-09-15T16:36:08.652Z,21.20
2022-09-15T16:38:35.979Z,21.10
2022-09-15T16:41:03.582Z,21.10
2022-09-15T16:43:30.671Z,21.10
2022-09-15T16:45:57.874Z,20.80
2022-09-15T16:48:25.029Z,21.10
2022-09-15T16:53:39.530Z,21.10
2022-09-15T16:56:10.928Z,21.20
2022-09-15T16:58:37.728Z,21.20
2022-09-15T17:01:04.852Z,21.30
2022-09-15T17:03:31.865Z,21.30
2022-09-15T17:05:59.676Z,21.40
2022-09-15T17:08:29.781Z,21.40
2022-09-15T17:10:57.727Z,21.50
2022-09-15T17:13:27.899Z,21.50
2022-09-15T17:15:57.794Z,21.40
2022-09-15T17:18:24.890Z,21.50
2022-09-15T17:20:52.057Z,21.40
2022-09-15T17:23:19.020Z,21.40
2022-09-15T17:25:52.033Z,21.40
2022-09-15T17:28:22.864Z,21.30
2022-09-15T17:30:51.034Z,21.30
2022-09-15T17:33:19.285Z,21.30
2022-09-15T17:35:46.565Z,21.20
2022-09-15T17:38:13.844Z,21.30
2022-09-15T17:40:40.890Z,21.20
2022-09-15T17:43:13.003Z,21.20
2022-09-15T17:45:39.960Z,21.20
2022-09-15T17:48:06.760Z,21.20
2022-09-15T17:50:34.421Z,21.20
2022-09-15T17:53:02.456Z,21.20
2022-09-15T17:55:33.421Z,21.20
2022-09-15T17:58:01.266Z,21.20
2022-09-15T18:00:29.632Z,21.20
2022-09-15T18:02:58.139Z,21.10
2022-09-15T18:05:26.615Z,21.10
2022-09-15T18:07:54.383Z,21.10
2022-09-15T18:10:21.626Z,21.00
2022-09-15T18:12:50.107Z,21.00
2022-09-15T18:15:21.290Z,21.00
2022-09-15T18:17:49.136Z,21.00
2022-09-15T18:20:17.589Z,21.00
2022-09-15T18:22:44.390Z,21.00
2022-09-15T18:25:15.548Z,20.90
2022-09-15T18:27:42.363Z,20.90
2022-09-15T18:30:09.495Z,20.90
2022-09-15T18:32:36.281Z,20.80
2022-09-15T18:35:03.198Z,21.00
2022-09-15T18:37:29.959Z,21.00
2022-09-15T18:39:56.705Z,21.00
2022-09-15T18:42:26.205Z,20.90
2022-09-15T18:44:55.317Z,20.90
2022-09-15T18:47:22.093Z,21.00
2022-09-15T18:49:48.883Z,20.90
2022-09-15T18:52:15.704Z,20.90
2022-09-15T18:54:42.472Z,20.90
2022-09-15T18:57:09.747Z,21.00
2022-09-15T18:59:36.627Z,21.00
2022-09-15T19:02:03.739Z,21.00
2022-09-15T19:04:33.360Z,21.00
2022-09-15T19:07:01.967Z,20.90
2022-09-15T19:09:28.836Z,21.00
2022-09-15T19:11:55.597Z,20.80
2022-09-15T19:14:22.718Z,21.00
2022-09-15T19:16:57.703Z,20.90
2022-09-15T19:19:25.415Z,20.90
2022-09-15T19:21:52.267Z,20.90
2022-09-15T19:24:19.232Z,20.90
2022-09-15T19:26:47.206Z,20.90
2022-09-15T19:29:14.176Z,20.90
2022-09-15T19:31:42.182Z,20.90
2022-09-15T19:34:09.162Z,20.90
2022-09-15T19:36:35.895Z,20.90
2022-09-15T19:39:03.729Z,20.90
2022-09-15T19:41:30.739Z,20.60
2022-09-15T19:43:57.661Z,20.90
2022-09-15T19:46:25.273Z,20.90
2022-09-15T19:48:52.706Z,20.90
2022-09-15T19:51:19.892Z,20.90
2022-09-15T19:53:47.200Z,20.80
2022-09-15T19:56:15.108Z,20.80
2022-09-15T19:58:41.978Z,20.80
2022-09-15T20:01:09.263Z,20.80
2022-09-15T20:03:36.447Z,20.80
2022-09-15T20:06:04.844Z,20.80
2022-09-15T20:08:31.620Z,20.80
2022-09-15T20:10:58.470Z,20.80
2022-09-15T20:13:25.288Z,20.80
2022-09-15T20:15:59.217Z,20.80
2022-09-15T20:18:26.326Z,20.80
2022-09-15T20:20:53.443Z,20.80
2022-09-15T20:23:20.488Z,20.80
2022-09-15T20:26:00.952Z,20.80
2022-09-15T20:28:29.401Z,20.80
2022-09-15T20:31:09.802Z,20.90
2022-09-15T20:33:38.664Z,20.80
2022-09-15T20:36:15.904Z,20.80
2022-09-15T20:38:47.657Z,20.80
2022-09-15T20:41:15.320Z,20.80
2022-09-15T20:43:42.523Z,20.80
2022-09-15T20:46:11.907Z,20.80
2022-09-15T20:48:39.228Z,20.80
2022-09-15T20:51:07.441Z,20.80
2022-09-15T20:53:35.038Z,20.80
2022-09-15T20:56:01.977Z,20.80
2022-09-15T20:58:29.199Z,20.70
2022-09-15T21:01:10.123Z,20.70
2022-09-15T21:03:37.980Z,20.70
2022-09-15T21:06:05.934Z,20.70
2022-09-15T21:08:32.726Z,20.60
2022-09-15T21:11:00.218Z,20.70
2022-09-15T21:13:30.789Z,20.70
2022-09-15T21:15:59.431Z,20.70
2022-09-15T21:18:28.638Z,20.60
2022-09-15T21:20:56.214Z,20.60
2022-09-15T21:23:23.102Z,20.60
2022-09-15T21:26:01.167Z,20.60
2022-09-15T21:28:28.684Z,20.60
2022-09-15T21:31:05.469Z,20.60
2022-09-15T21:33:32.308Z,20.60
2022-09-15T21:36:06.692Z,20.60
2022-09-15T21:38:34.392Z,20.60
2022-09-15T21:41:01.136Z,20.60
2022-09-15T21:43:31.959Z,20.60
2022-09-15T21:45:59.025Z,20.50
2022-09-15T21:48:27.199Z,20.50
2022-09-15T21:50:54.079Z,20.60
2022-09-15T21:53:21.103Z,20.50
2022-09-15T21:55:50.390Z,20.50
2022-09-15T21:58:19.057Z,20.60
2022-09-15T22:00:49.026Z,20.60
2022-09-15T22:03:16.232Z,20.60
2022-09-15T22:05:43.963Z,20.50
2022-09-15T22:08:12.264Z,20.40
2022-09-15T22:10:39.556Z,20.40
2022-09-15T22:13:07.445Z,20.40
2022-09-15T22:15:34.760Z,20.40
2022-09-15T22:18:01.993Z,20.40
2022-09-15T22:20:28.732Z,20.40
2022-09-15T22:22:56.518Z,20.40
2022-09-15T22:25:23.218Z,20.30
2022-09-15T22:27:50.080Z,20.40
2022-09-15T22:30:16.911Z,20.30
2022-09-15T22:32:43.751Z,20.40
2022-09-15T22:35:10.712Z,20.40
2022-09-15T22:37:37.565Z,20.40
2022-09-15T22:40:04.619Z,20.40
2022-09-15T22:42:31.466Z,20.40
2022-09-15T22:44:58.203Z,20.30
2022-09-15T22:47:24.975Z,20.30
2022-09-15T22:49:51.713Z,20.30
2022-09-15T22:52:18.533Z,20.30
2022-09-15T22:54:45.226Z,20.30
2022-09-15T22:57:11.995Z,20.30
2022-09-15T22:59:38.782Z,20.30
2022-09-15T23:02:05.631Z,20.10
2022-09-15T23:04:32.454Z,20.20
2022-09-15T23:06:59.291Z,20.20
2022-09-15T23:09:26.424Z,20.20
2022-09-15T23:11:53.270Z,20.20
2022-09-15T23:14:20.092Z,20.10
2022-09-15T23:16:47.975Z,20.20
2022-09-15T23:19:14.813Z,20.10
2022-09-15T23:21:41.614Z,20.20
2022-09-15T23:24:08.804Z,20.20
2022-09-15T23:26:35.686Z,20.20
2022-09-15T23:29:02.461Z,20.20
2022-09-15T23:31:29.285Z,20.10
2022-09-15T23:33:56.032Z,20.10
2022-09-15T23:36:23.118Z,20.10
2022-09-15T23:38:49.983Z,20.10
2022-09-15T23:41:17.354Z,20.10
2022-09-15T23:43:44.363Z,20.00
2022-09-15T23:46:11.399Z,19.90
2022-09-15T23:48:38.206Z,19.90
2022-09-15T23:51:05.312Z,19.80
2022-09-15T23:53:32.080Z,19.70
2022-09-15T23:55:59.762Z,19.70
2022-09-15T23:58:26.537Z,19.80
